Airfield :
LOGIN :

Register | Disclaimer

   EN    FR    IT 

 










Legend :    VFR   Marginal VFR   IFR   Intensive IFR   Very Intensive IFR
Visi :
Ceiling :
>= 8 km
>= 3000ft
5 to 8 km
1000 to 3000 ft
1500m to 5 km
500 to 1000 ft
800 to 1500m
200 to 500 ft
< 800m
< 200 ft
Symbols :   Thunderstorms  Fog  Heavy snow  Heavy precipitations  Wind > 20 kt
SIGMETs :     Misc.  Thunderstorms  Icing  Turbulence  Mountain Waves  Volcanic Ashes







- Airport Elevation : 90 ft
- IATA code : NTE
- Download approach charts


LFRS - Nantes

CURRENT METAR :
  • 231130Z AUTO 05011KT 010V090 CAVOK 21/07 Q1026 NOSIG

EXPIRED METARs :
  • 231100Z AUTO 04010KT 360V100 CAVOK 21/04 Q1026 NOSIG
  • 231030Z AUTO 04009KT 010V070 CAVOK 21/05 Q1027 NOSIG
  • 231000Z AUTO 04008KT 010V080 CAVOK 20/05 Q1026 NOSIG
  • 230930Z AUTO 06011KT 020V090 CAVOK 19/07 Q1026 NOSIG
  • 230900Z AUTO 07010KT 040V100 CAVOK 18/06 Q1026 NOSIG
  • 230830Z AUTO 07010KT 040V110 CAVOK 18/08 Q1027 NOSIG

TAF TAF LFRS
Valid from the 23 at 12:00 until the 24 at 18:00 UTC


231100Z 2312/2418 06007KT CAVOK
ATIS : +33 2 40 05 12 74
No reported NOTAMs for that airfield.



MET'MAP, your aeronautical weather chart ! - Copyright ORBIFLY December 2007 - Disclaimer

ORBIFLY MET'MAP TEAM :

Programming & Development : Alexandra Zaïnal
Concept & Development : Baudouin d'Aumeries
Co-Development & Prog : Marc-Olivier Méhu
Technical & hardware support : Manuel Goepfert

Contact : metmap@orbifly.com




SOURCES & CREDITS :

   NOAA